createdAt,value
2018-05-07T00:00:54.196Z,86.40
2018-05-07T00:03:26.564Z,87.60
2018-05-07T00:05:58.893Z,87.20
2018-05-07T00:08:31.118Z,87.70
2018-05-07T00:11:03.471Z,87.70
2018-05-07T00:13:35.750Z,88.20
2018-05-07T00:16:08.009Z,88.30
2018-05-07T00:18:40.302Z,88.50
2018-05-07T00:21:12.597Z,89.40
2018-05-07T00:23:45.743Z,88.00
2018-05-07T00:26:18.151Z,87.80
2018-05-07T00:28:50.506Z,88.20
2018-05-07T00:31:22.861Z,88.50
2018-05-07T00:33:55.156Z,89.20
2018-05-07T00:36:27.570Z,89.60
2018-05-07T00:38:59.936Z,90.00
2018-05-07T00:41:32.210Z,89.90
2018-05-07T00:44:04.398Z,90.10
2018-05-07T00:46:36.647Z,90.00
2018-05-07T00:49:08.990Z,90.00
2018-05-07T00:51:41.279Z,89.50
2018-05-07T00:54:14.409Z,90.10
2018-05-07T00:56:46.757Z,90.10
2018-05-07T00:59:19.082Z,90.30
2018-05-07T01:01:51.381Z,90.30
2018-05-07T01:04:24.460Z,90.50
2018-05-07T01:06:57.482Z,90.60
2018-05-07T01:09:29.909Z,90.50
2018-05-07T01:12:02.219Z,90.70
2018-05-07T01:14:34.500Z,90.60
2018-05-07T01:17:06.835Z,91.10
2018-05-07T01:19:39.957Z,90.80
2018-05-07T01:22:12.288Z,90.70
2018-05-07T01:24:44.615Z,90.60
2018-05-07T01:27:16.914Z,90.90
2018-05-07T01:29:49.241Z,90.30
2018-05-07T01:32:21.593Z,90.40
2018-05-07T01:34:54.644Z,90.70
2018-05-07T01:37:27.002Z,90.70
2018-05-07T01:39:59.416Z,90.90
2018-05-07T01:42:31.747Z,91.00
2018-05-07T01:45:04.089Z,90.30
2018-05-07T01:47:36.372Z,90.30
2018-05-07T01:50:08.728Z,90.10
2018-05-07T01:52:41.038Z,90.10
2018-05-07T01:55:13.455Z,88.70
2018-05-07T01:57:46.620Z,87.80
2018-05-07T02:00:19.105Z,87.80
2018-05-07T02:02:51.471Z,87.10
2018-05-07T02:05:23.816Z,87.70
2018-05-07T02:07:56.091Z,86.90
2018-05-07T02:10:28.397Z,87.10
2018-05-07T02:13:01.419Z,86.60
2018-05-07T02:15:33.732Z,86.60
2018-05-07T02:18:05.998Z,87.20
2018-05-07T02:20:38.413Z,87.10
2018-05-07T02:23:11.504Z,87.10
2018-05-07T02:25:43.716Z,87.10
2018-05-07T02:28:16.061Z,86.70
2018-05-07T02:30:48.505Z,86.50
2018-05-07T02:33:20.740Z,86.80
2018-05-07T02:35:53.119Z,87.00
2018-05-07T02:38:25.426Z,87.20
2018-05-07T02:40:58.673Z,88.00
2018-05-07T02:43:31.018Z,88.00
2018-05-07T02:46:03.295Z,88.50
2018-05-07T02:48:35.677Z,88.50
2018-05-07T02:51:08.071Z,88.80
2018-05-07T02:53:40.421Z,89.30
2018-05-07T02:56:12.757Z,90.00
2018-05-07T02:58:45.698Z,90.30
2018-05-07T03:01:18.081Z,90.20
2018-05-07T03:03:50.372Z,90.30
2018-05-07T03:06:22.843Z,90.50
2018-05-07T03:08:55.169Z,90.50
2018-05-07T03:11:27.550Z,90.70
2018-05-07T03:13:59.919Z,90.90
2018-05-07T03:16:32.242Z,91.00
2018-05-07T03:19:05.383Z,91.00
2018-05-07T03:21:37.712Z,91.00
2018-05-07T03:24:10.838Z,90.50
2018-05-07T03:26:43.165Z,90.50
2018-05-07T03:29:16.303Z,90.40
2018-05-07T03:31:48.642Z,90.40
2018-05-07T03:34:20.894Z,90.00
2018-05-07T03:36:54.071Z,90.00
2018-05-07T03:39:26.400Z,89.90
2018-05-07T03:41:58.815Z,90.20
2018-05-07T03:44:31.166Z,90.50
2018-05-07T03:47:03.726Z,90.60
2018-05-07T03:49:36.203Z,90.50
2018-05-07T03:52:08.561Z,90.30
2018-05-07T03:54:40.806Z,90.50
2018-05-07T03:57:13.843Z,90.50
2018-05-07T03:59:46.248Z,90.50
2018-05-07T04:02:25.270Z,90.40
2018-05-07T04:04:57.563Z,90.00
2018-05-07T04:07:30.717Z,90.30
2018-05-07T04:10:03.015Z,90.30
2018-05-07T04:12:36.203Z,90.30
2018-05-07T04:15:08.603Z,90.20
2018-05-07T04:17:54.469Z,90.40
2018-05-07T04:20:36.954Z,90.30
2018-05-07T04:23:21.805Z,90.40
2018-05-07T04:25:54.359Z,90.40
2018-05-07T04:28:26.800Z,90.10
2018-05-07T04:30:59.188Z,89.90
2018-05-07T04:33:31.497Z,90.00
2018-05-07T04:36:04.573Z,89.30
2018-05-07T04:38:36.871Z,89.30
2018-05-07T04:41:09.220Z,89.20
2018-05-07T04:43:41.481Z,88.90
2018-05-07T04:46:13.819Z,88.40
2018-05-07T04:48:47.199Z,88.20
2018-05-07T04:51:19.475Z,88.20
2018-05-07T04:53:51.817Z,87.90
2018-05-07T04:56:24.204Z,87.90
2018-05-07T04:58:56.491Z,86.90
2018-05-07T05:01:28.879Z,86.50
2018-05-07T05:04:01.950Z,85.50
2018-05-07T05:06:34.285Z,85.50
2018-05-07T05:09:06.708Z,85.20
2018-05-07T05:11:39.846Z,84.40
2018-05-07T05:14:12.215Z,84.40
2018-05-07T05:16:44.531Z,84.10
2018-05-07T05:19:17.010Z,83.40
2018-05-07T05:21:49.240Z,83.30
2018-05-07T05:24:21.581Z,82.80
2018-05-07T05:26:54.001Z,81.40
2018-05-07T05:29:26.284Z,81.70
2018-05-07T05:31:58.628Z,81.00
2018-05-07T05:34:30.971Z,80.70
2018-05-07T05:37:03.200Z,80.50
2018-05-07T05:39:36.303Z,80.10
2018-05-07T05:42:09.282Z,79.40
2018-05-07T05:44:41.609Z,79.40
2018-05-07T05:47:14.017Z,80.00
2018-05-07T05:49:46.398Z,79.70
2018-05-07T05:52:19.576Z,78.60
2018-05-07T05:54:51.820Z,78.50
2018-05-07T05:57:24.171Z,78.40
2018-05-07T05:59:56.499Z,78.20
2018-05-07T06:02:28.773Z,77.80
2018-05-07T06:05:01.081Z,78.30
2018-05-07T06:07:33.359Z,75.80
2018-05-07T06:10:05.890Z,75.50
2018-05-07T06:12:38.127Z,74.60
2018-05-07T06:15:10.535Z,73.30
2018-05-07T06:17:43.690Z,72.40
2018-05-07T06:20:16.154Z,72.30
2018-05-07T06:22:49.167Z,70.90
2018-05-07T06:25:21.570Z,70.90
2018-05-07T06:27:54.597Z,69.30
2018-05-07T06:30:26.932Z,69.30
2018-05-07T06:33:00.003Z,64.00
2018-05-07T06:35:32.380Z,63.80
2018-05-07T06:38:04.684Z,59.00
2018-05-07T06:40:37.045Z,57.90
2018-05-07T06:43:09.264Z,53.80
2018-05-07T06:45:41.709Z,52.00
2018-05-07T06:48:14.056Z,48.80
2018-05-07T06:50:46.381Z,46.40
2018-05-07T06:53:18.709Z,46.90
2018-05-07T06:55:51.727Z,46.00
2018-05-07T06:58:24.021Z,45.90
2018-05-07T07:00:56.436Z,44.80
2018-05-07T07:03:28.856Z,44.10
2018-05-07T07:06:01.206Z,43.50
2018-05-07T07:08:33.652Z,43.40
2018-05-07T07:11:06.613Z,40.60
2018-05-07T07:13:38.912Z,40.50
2018-05-07T07:16:11.966Z,40.80
2018-05-07T07:18:44.284Z,40.80
2018-05-07T07:21:16.617Z,39.30
2018-05-07T07:23:48.913Z,40.30
2018-05-07T07:26:22.093Z,38.90
2018-05-07T07:28:55.174Z,37.70
2018-05-07T07:31:27.495Z,37.60
2018-05-07T07:33:59.847Z,37.20
2018-05-07T07:36:32.123Z,34.50
2018-05-07T07:39:04.443Z,36.10
2018-05-07T07:41:36.781Z,35.20
2018-05-07T07:44:09.149Z,34.20
2018-05-07T07:46:41.509Z,33.30
2018-05-07T07:49:13.772Z,32.40
2018-05-07T07:51:46.834Z,34.20
2018-05-07T07:54:19.175Z,34.10
2018-05-07T07:56:51.506Z,33.30
2018-05-07T07:59:23.901Z,31.00
2018-05-07T08:01:56.220Z,30.20
2018-05-07T08:04:28.493Z,30.40
2018-05-07T08:07:00.986Z,29.90
2018-05-07T08:09:34.040Z,29.70
2018-05-07T08:12:06.368Z,29.70
2018-05-07T08:14:38.753Z,29.30
2018-05-07T08:17:11.177Z,29.10
2018-05-07T08:19:44.261Z,30.10
2018-05-07T08:22:16.788Z,30.10
2018-05-07T08:24:49.143Z,28.40
2018-05-07T08:27:22.178Z,27.90
2018-05-07T08:29:54.535Z,27.90
2018-05-07T08:32:26.896Z,27.50
2018-05-07T08:34:59.425Z,26.80
2018-05-07T08:37:31.699Z,26.80
2018-05-07T08:40:04.032Z,26.70
2018-05-07T08:42:36.372Z,25.90
2018-05-07T08:45:08.762Z,26.80
2018-05-07T08:47:41.232Z,26.60
2018-05-07T08:50:13.558Z,27.40
2018-05-07T08:52:45.950Z,27.80
2018-05-07T08:55:19.012Z,27.10
2018-05-07T08:57:51.343Z,27.10
2018-05-07T09:00:23.639Z,27.70
2018-05-07T09:02:56.049Z,28.00
2018-05-07T09:05:29.089Z,26.10
2018-05-07T09:08:01.348Z,26.10
2018-05-07T09:10:33.634Z,25.60
2018-05-07T09:13:06.086Z,26.70
2018-05-07T09:15:38.518Z,24.90
2018-05-07T09:18:11.624Z,25.20
2018-05-07T09:20:44.764Z,25.40
2018-05-07T09:23:17.126Z,25.40
2018-05-07T09:25:50.078Z,26.20
2018-05-07T09:28:22.433Z,26.20
2018-05-07T09:30:55.473Z,24.10
2018-05-07T09:33:27.770Z,24.00
2018-05-07T09:36:00.121Z,25.10
2018-05-07T09:38:32.509Z,25.10
2018-05-07T09:41:04.816Z,27.00
2018-05-07T09:43:37.885Z,25.40
2018-05-07T09:46:10.108Z,25.40
2018-05-07T09:48:42.497Z,27.00
2018-05-07T09:51:14.804Z,26.80
2018-05-07T09:53:47.161Z,26.40
2018-05-07T09:56:19.517Z,26.10
2018-05-07T09:59:03.172Z,26.10
2018-05-07T10:01:35.443Z,27.00
2018-05-07T10:04:07.749Z,27.40
2018-05-07T10:06:40.074Z,29.90
2018-05-07T10:09:12.689Z,28.70
2018-05-07T10:11:45.710Z,30.00
2018-05-07T10:14:18.052Z,30.00
2018-05-07T10:16:51.100Z,30.20
2018-05-07T10:19:23.512Z,30.20
2018-05-07T10:21:55.867Z,30.00
2018-05-07T10:24:28.253Z,30.00
2018-05-07T10:27:01.379Z,30.10
2018-05-07T10:29:33.678Z,30.10
2018-05-07T10:32:06.145Z,31.70
2018-05-07T10:34:38.505Z,32.40
2018-05-07T10:37:10.774Z,31.90
2018-05-07T10:39:43.093Z,32.60
2018-05-07T10:42:16.130Z,33.60
2018-05-07T10:44:48.556Z,33.50
2018-05-07T10:47:21.621Z,30.30
2018-05-07T10:49:54.017Z,30.30
2018-05-07T10:52:26.365Z,31.80
2018-05-07T10:54:58.695Z,32.00
2018-05-07T10:57:31.065Z,31.50
2018-05-07T11:00:03.510Z,31.00
2018-05-07T11:02:36.630Z,31.20
2018-05-07T11:05:08.929Z,31.20
2018-05-07T11:07:41.139Z,33.10
2018-05-07T11:10:14.198Z,30.80
2018-05-07T11:12:46.503Z,30.80
2018-05-07T11:15:18.813Z,31.50
2018-05-07T11:17:51.137Z,30.80
2018-05-07T11:20:24.312Z,31.10
2018-05-07T11:22:56.671Z,31.00
2018-05-07T11:25:29.050Z,30.00
2018-05-07T11:28:01.357Z,30.20
2018-05-07T11:30:34.464Z,31.10
2018-05-07T11:33:06.855Z,31.00
2018-05-07T11:35:39.280Z,30.70
2018-05-07T11:38:12.427Z,32.30
2018-05-07T11:40:44.766Z,32.30
2018-05-07T11:43:17.852Z,31.20
2018-05-07T11:45:50.861Z,30.70
2018-05-07T11:48:23.275Z,30.70
2018-05-07T11:50:55.653Z,32.30
2018-05-07T11:53:27.996Z,32.40
2018-05-07T11:56:00.293Z,31.90
2018-05-07T11:58:33.315Z,33.20
2018-05-07T12:01:06.434Z,33.70
2018-05-07T12:03:39.522Z,33.00
2018-05-07T12:06:11.968Z,32.90
2018-05-07T12:08:44.258Z,33.80
2018-05-07T12:11:16.593Z,33.20
2018-05-07T12:13:49.621Z,34.10
2018-05-07T12:16:22.057Z,34.00
2018-05-07T12:18:55.050Z,33.80
2018-05-07T12:21:28.181Z,34.30
2018-05-07T12:24:00.578Z,34.30
2018-05-07T12:26:32.928Z,34.50
2018-05-07T12:29:05.285Z,34.20
2018-05-07T12:31:37.798Z,34.30
2018-05-07T12:34:10.159Z,33.90
2018-05-07T12:36:42.490Z,35.10
2018-05-07T12:39:15.681Z,32.90
2018-05-07T12:41:48.053Z,32.90
2018-05-07T12:44:20.442Z,33.50
2018-05-07T12:46:52.886Z,32.90
2018-05-07T12:49:25.222Z,33.40
2018-05-07T12:51:57.733Z,32.30
2018-05-07T12:54:30.797Z,32.40
2018-05-07T12:57:03.114Z,32.40
2018-05-07T12:59:35.519Z,32.40
2018-05-07T13:02:07.870Z,31.80
2018-05-07T13:04:40.191Z,31.30
2018-05-07T13:07:12.648Z,31.00
2018-05-07T13:09:44.933Z,32.00
2018-05-07T13:12:18.049Z,34.40
2018-05-07T13:14:51.094Z,32.40
2018-05-07T13:17:23.521Z,32.30
2018-05-07T13:19:56.578Z,33.30
2018-05-07T13:22:28.947Z,33.30
2018-05-07T13:25:01.294Z,32.60
2018-05-07T13:27:33.700Z,32.10
2018-05-07T13:30:06.044Z,33.00
2018-05-07T13:32:38.301Z,32.50
2018-05-07T13:35:10.691Z,31.90
2018-05-07T13:37:43.054Z,33.10
2018-05-07T13:40:15.281Z,32.40
2018-05-07T13:42:48.299Z,31.40
2018-05-07T13:45:21.443Z,31.10
2018-05-07T13:47:53.794Z,31.10
2018-05-07T13:50:26.102Z,31.20
2018-05-07T13:52:59.308Z,30.50
2018-05-07T13:55:31.613Z,30.50
2018-05-07T13:58:03.897Z,31.20
2018-05-07T14:00:36.302Z,31.30
2018-05-07T14:03:09.447Z,32.30
2018-05-07T14:05:41.846Z,32.20
2018-05-07T14:08:14.177Z,31.50
2018-05-07T14:10:46.574Z,31.50
2018-05-07T14:13:19.037Z,32.10
2018-05-07T14:15:51.441Z,31.70
2018-05-07T14:18:24.530Z,32.20
2018-05-07T14:20:56.907Z,32.20
2018-05-07T14:23:29.274Z,31.30
2018-05-07T14:26:01.541Z,31.30
2018-05-07T14:28:34.006Z,30.20
2018-05-07T14:31:06.374Z,30.80
2018-05-07T14:33:39.460Z,32.20
2018-05-07T14:36:11.825Z,32.10
2018-05-07T14:38:44.125Z,31.30
2018-05-07T14:41:17.194Z,31.30
2018-05-07T14:43:49.567Z,31.20
2018-05-07T14:46:21.929Z,30.80
2018-05-07T14:48:54.287Z,31.20
2018-05-07T14:51:26.698Z,30.50
2018-05-07T14:53:59.204Z,31.30
2018-05-07T14:56:32.191Z,32.10
2018-05-07T14:59:05.282Z,32.20
2018-05-07T15:01:38.432Z,33.00
2018-05-07T15:04:10.821Z,33.00
2018-05-07T15:06:43.186Z,33.00
2018-05-07T15:09:15.500Z,33.70
2018-05-07T15:11:47.792Z,33.60
2018-05-07T15:14:27.126Z,34.60
2018-05-07T15:16:59.439Z,33.80
2018-05-07T15:19:32.553Z,33.60
2018-05-07T15:22:05.689Z,33.50
2018-05-07T15:24:51.028Z,33.50
2018-05-07T15:27:23.307Z,33.50
2018-05-07T15:29:55.731Z,32.80
2018-05-07T15:32:28.014Z,33.60
2018-05-07T15:35:00.436Z,33.70
2018-05-07T15:37:32.844Z,33.60
2018-05-07T15:40:05.145Z,35.00
2018-05-07T15:42:38.278Z,33.10
2018-05-07T15:45:11.360Z,33.70
2018-05-07T15:47:43.650Z,33.70
2018-05-07T15:50:15.923Z,34.40
2018-05-07T15:52:48.310Z,33.30
2018-05-07T15:55:20.694Z,32.30
2018-05-07T15:57:53.049Z,32.40
2018-05-07T16:00:25.528Z,33.00
2018-05-07T16:02:57.923Z,34.20
2018-05-07T16:05:30.194Z,34.80
2018-05-07T16:08:02.432Z,33.60
2018-05-07T16:10:34.721Z,33.60
2018-05-07T16:13:06.988Z,33.70
2018-05-07T16:15:39.414Z,33.70
2018-05-07T16:18:12.459Z,33.50
2018-05-07T16:20:44.901Z,33.40
2018-05-07T16:23:17.405Z,33.40
2018-05-07T16:25:49.505Z,33.00
2018-05-07T16:28:21.839Z,33.00
2018-05-07T16:30:54.257Z,32.40
2018-05-07T16:33:26.666Z,33.20
2018-05-07T16:35:58.965Z,33.40
2018-05-07T16:38:31.349Z,34.10
2018-05-07T16:41:04.502Z,33.90
2018-05-07T16:43:36.940Z,33.90
2018-05-07T16:46:09.377Z,33.30
2018-05-07T16:48:41.795Z,33.80
2018-05-07T16:51:14.857Z,33.40
2018-05-07T16:53:47.924Z,33.40
2018-05-07T16:56:20.380Z,33.30
2018-05-07T16:58:53.082Z,33.60
2018-05-07T17:01:25.584Z,33.70
2018-05-07T17:03:58.585Z,33.40
2018-05-07T17:06:31.085Z,33.30
2018-05-07T17:09:03.419Z,32.80
2018-05-07T17:11:35.818Z,33.10
2018-05-07T17:14:08.259Z,33.10
2018-05-07T17:16:41.462Z,33.40
2018-05-07T17:19:14.596Z,33.40
2018-05-07T17:21:46.991Z,33.40
2018-05-07T17:24:19.381Z,33.30
2018-05-07T17:26:51.759Z,33.40
2018-05-07T17:29:24.790Z,33.30
2018-05-07T17:31:57.100Z,33.30
2018-05-07T17:34:29.604Z,34.40
2018-05-07T17:37:02.625Z,35.00
2018-05-07T17:39:34.978Z,34.90
2018-05-07T17:42:07.323Z,34.70
2018-05-07T17:44:51.997Z,34.70
2018-05-07T17:47:36.816Z,35.00
2018-05-07T17:50:09.093Z,35.40
2018-05-07T17:52:41.491Z,35.50
2018-05-07T17:55:13.748Z,35.10
2018-05-07T17:57:46.158Z,35.40
2018-05-07T18:00:19.175Z,35.80
2018-05-07T18:02:51.572Z,35.80
2018-05-07T18:05:23.775Z,35.90
2018-05-07T18:07:56.897Z,36.50
2018-05-07T18:10:30.080Z,36.70
2018-05-07T18:13:02.553Z,36.70
2018-05-07T18:15:34.978Z,36.80
2018-05-07T18:18:07.402Z,36.70
2018-05-07T18:20:39.678Z,38.00
2018-05-07T18:23:12.025Z,38.00
2018-05-07T18:25:45.062Z,38.70
2018-05-07T18:28:17.396Z,38.60
2018-05-07T18:30:49.738Z,37.90
2018-05-07T18:33:22.159Z,37.90
2018-05-07T18:35:54.546Z,37.90
2018-05-07T18:38:26.814Z,38.20
2018-05-07T18:40:59.124Z,39.30
2018-05-07T18:43:31.793Z,39.40
2018-05-07T18:46:04.099Z,39.50
2018-05-07T18:48:36.463Z,39.30
2018-05-07T18:51:09.539Z,39.40
2018-05-07T18:53:41.874Z,39.40
2018-05-07T18:56:14.226Z,39.20
2018-05-07T18:58:46.820Z,40.40
2018-05-07T19:01:19.315Z,40.30
2018-05-07T19:03:51.704Z,40.80
2018-05-07T19:06:24.050Z,42.60
2018-05-07T19:08:56.394Z,42.20
2018-05-07T19:11:28.837Z,41.90
2018-05-07T19:14:01.190Z,42.30
2018-05-07T19:16:33.512Z,42.00
2018-05-07T19:19:05.775Z,43.00
2018-05-07T19:21:38.460Z,43.00
2018-05-07T19:24:10.813Z,43.70
2018-05-07T19:26:43.157Z,43.70
2018-05-07T19:29:15.583Z,44.80
2018-05-07T19:31:47.958Z,46.10
2018-05-07T19:34:20.421Z,47.30
2018-05-07T19:36:53.052Z,46.20
2018-05-07T19:39:25.375Z,46.10
2018-05-07T19:41:57.671Z,47.00
2018-05-07T19:44:30.054Z,49.00
2018-05-07T19:47:02.438Z,49.00
2018-05-07T19:49:34.825Z,49.70
2018-05-07T19:52:07.195Z,50.70
2018-05-07T19:54:39.544Z,49.80
2018-05-07T19:57:12.051Z,50.80
2018-05-07T19:59:45.272Z,52.40
2018-05-07T20:02:17.606Z,52.40
2018-05-07T20:04:49.878Z,51.50
2018-05-07T20:07:22.254Z,53.50
2018-05-07T20:09:54.646Z,53.40
2018-05-07T20:12:27.030Z,54.20
2018-05-07T20:14:59.333Z,54.50
2018-05-07T20:17:31.629Z,56.10
2018-05-07T20:20:04.064Z,55.30
2018-05-07T20:22:37.175Z,53.00
2018-05-07T20:25:09.733Z,53.00
2018-05-07T20:27:42.094Z,54.10
2018-05-07T20:30:14.532Z,54.90
2018-05-07T20:32:47.658Z,55.50
2018-05-07T20:35:20.005Z,55.50
2018-05-07T20:37:53.070Z,53.70
2018-05-07T20:40:25.467Z,53.60
2018-05-07T20:42:57.803Z,53.10
2018-05-07T20:45:30.078Z,53.10
2018-05-07T20:48:02.705Z,52.60
2018-05-07T20:50:34.908Z,53.20
2018-05-07T20:53:07.192Z,52.70
2018-05-07T20:55:39.497Z,53.10
2018-05-07T20:58:12.648Z,52.80
2018-05-07T21:00:45.068Z,52.80
2018-05-07T21:03:17.406Z,54.00
2018-05-07T21:05:49.737Z,53.90
2018-05-07T21:08:22.073Z,56.10
2018-05-07T21:10:55.192Z,57.30
2018-05-07T21:13:27.463Z,57.30
2018-05-07T21:15:59.827Z,59.80
2018-05-07T21:18:32.178Z,60.00
2018-05-07T21:21:05.587Z,61.40
2018-05-07T21:23:38.080Z,61.40
2018-05-07T21:26:10.410Z,65.20
2018-05-07T21:28:42.738Z,64.90
2018-05-07T21:31:15.139Z,63.00
2018-05-07T21:33:47.401Z,61.50
2018-05-07T21:36:19.827Z,63.20
2018-05-07T21:38:52.137Z,64.70
2018-05-07T21:41:24.668Z,65.20
2018-05-07T21:43:57.142Z,66.80
2018-05-07T21:46:30.187Z,62.40
2018-05-07T21:49:02.582Z,62.40
2018-05-07T21:51:35.687Z,62.40
2018-05-07T21:54:08.818Z,60.20
2018-05-07T21:56:41.229Z,60.10
2018-05-07T21:59:13.578Z,59.80
2018-05-07T22:01:45.924Z,59.30
2018-05-07T22:04:18.205Z,58.40
2018-05-07T22:06:50.531Z,58.60
2018-05-07T22:09:23.708Z,59.70
2018-05-07T22:11:56.061Z,59.70
2018-05-07T22:14:28.343Z,58.30
2018-05-07T22:17:00.698Z,58.70
2018-05-07T22:19:32.965Z,60.60
2018-05-07T22:22:05.361Z,59.40
2018-05-07T22:24:37.690Z,59.80
2018-05-07T22:27:10.137Z,60.90
2018-05-07T22:29:43.256Z,60.80
2018-05-07T22:32:15.758Z,60.80
2018-05-07T22:34:48.860Z,61.90
2018-05-07T22:37:21.163Z,61.80
2018-05-07T22:39:53.619Z,61.20
2018-05-07T22:42:25.886Z,61.70
2018-05-07T22:44:58.296Z,63.10
2018-05-07T22:47:30.703Z,63.10
2018-05-07T22:50:03.106Z,64.40
2018-05-07T22:52:35.509Z,64.30
2018-05-07T22:55:12.687Z,64.00
2018-05-07T22:57:45.776Z,65.50
2018-05-07T23:00:19.674Z,65.50
2018-05-07T23:02:53.972Z,64.30
2018-05-07T23:05:26.221Z,64.30
2018-05-07T23:07:58.817Z,63.70
2018-05-07T23:10:31.170Z,63.00
2018-05-07T23:13:03.593Z,64.50
2018-05-07T23:15:36.682Z,63.40
2018-05-07T23:18:09.840Z,63.40
2018-05-07T23:20:42.127Z,63.30
2018-05-07T23:23:14.476Z,63.60
2018-05-07T23:25:46.869Z,63.80
2018-05-07T23:28:19.240Z,63.80
2018-05-07T23:30:51.485Z,64.10
2018-05-07T23:33:23.788Z,64.10
2018-05-07T23:35:56.852Z,64.20
2018-05-07T23:38:29.228Z,64.10
2018-05-07T23:41:01.608Z,64.10
2018-05-07T23:43:33.951Z,64.50
2018-05-07T23:46:06.237Z,64.30
2018-05-07T23:48:38.580Z,65.00
2018-05-07T23:51:11.007Z,65.00
2018-05-07T23:53:43.318Z,65.30
2018-05-07T23:56:15.647Z,65.40
2018-05-07T23:58:48.651Z,66.10
